createdAt,value
2018-06-18T00:01:53.533Z,18.00
2018-06-18T00:14:12.386Z,18.00
2018-06-18T00:16:41.215Z,17.30
2018-06-18T00:19:09.898Z,17.40
2018-06-18T00:21:38.592Z,17.50
2018-06-18T00:24:07.013Z,17.50
2018-06-18T00:26:36.165Z,17.60
2018-06-18T00:29:04.625Z,17.70
2018-06-18T00:31:33.756Z,17.80
2018-06-18T00:34:06.176Z,17.80
2018-06-18T00:36:35.057Z,17.90
2018-06-18T00:39:04.873Z,17.80
2018-06-18T00:41:33.862Z,17.90
2018-06-18T00:44:02.296Z,17.90
2018-06-18T00:46:30.826Z,18.00
2018-06-18T00:48:59.276Z,17.90
2018-06-18T00:51:27.697Z,17.90
2018-06-18T00:53:56.136Z,17.80
2018-06-18T00:56:24.539Z,17.80
2018-06-18T00:58:52.948Z,17.80
2018-06-18T01:01:21.364Z,17.80
2018-06-18T01:03:49.881Z,17.80
2018-06-18T01:06:18.387Z,17.80
2018-06-18T01:08:47.657Z,17.80
2018-06-18T01:11:16.111Z,17.80
2018-06-18T01:13:44.647Z,17.80
2018-06-18T01:16:13.778Z,17.80
2018-06-18T01:18:42.840Z,17.80
2018-06-18T01:34:19.014Z,17.70
2018-06-18T01:36:48.334Z,17.00
2018-06-18T01:39:16.745Z,16.90
2018-06-18T01:44:14.068Z,17.00
2018-06-18T01:46:42.529Z,17.00
2018-06-18T01:49:11.433Z,17.10
2018-06-18T01:51:39.837Z,17.10
2018-06-18T01:54:08.288Z,16.90
2018-06-18T01:56:36.774Z,17.00
2018-06-18T01:59:05.335Z,17.00
2018-06-18T02:01:33.816Z,17.00
2018-06-18T02:04:02.603Z,17.10
2018-06-18T02:06:31.010Z,17.10
2018-06-18T02:08:59.437Z,17.20
2018-06-18T02:11:28.532Z,17.30
2018-06-18T02:13:56.944Z,17.30
2018-06-18T02:16:25.376Z,17.20
2018-06-18T02:18:54.182Z,17.00
2018-06-18T02:21:22.660Z,17.10
2018-06-18T02:23:51.100Z,17.10
2018-06-18T02:26:19.509Z,17.30
2018-06-18T02:28:53.404Z,17.30
2018-06-18T02:31:27.040Z,17.40
2018-06-18T02:34:00.722Z,17.40
2018-06-18T02:36:34.381Z,17.30
2018-06-18T02:39:09.085Z,17.20
2018-06-18T02:41:43.148Z,17.00
2018-06-18T02:44:12.117Z,17.00
2018-06-18T02:46:44.903Z,17.00
2018-06-18T02:49:13.374Z,16.80
2018-06-18T02:51:46.433Z,16.90
2018-06-18T02:54:14.925Z,17.00
2018-06-18T02:57:02.135Z,16.90
2018-06-18T02:59:31.248Z,17.00
2018-06-18T03:01:59.986Z,17.00
2018-06-18T03:04:28.413Z,17.00
2018-06-18T03:06:57.537Z,17.00
2018-06-18T03:09:25.941Z,17.10
2018-06-18T03:11:58.701Z,17.10
2018-06-18T03:14:27.135Z,17.30
2018-06-18T03:16:55.916Z,17.20
2018-06-18T03:19:29.825Z,17.20
2018-06-18T03:22:03.884Z,17.30
2018-06-18T03:24:37.724Z,17.30
2018-06-18T03:27:11.524Z,17.40
2018-06-18T03:29:40.000Z,17.30
2018-06-18T03:32:15.786Z,17.30
2018-06-18T03:34:44.328Z,17.30
2018-06-18T03:37:15.042Z,17.40
2018-06-18T03:39:43.421Z,17.40
2018-06-18T03:42:11.852Z,17.40
2018-06-18T03:44:50.712Z,17.50
2018-06-18T03:47:29.497Z,17.50
2018-06-18T03:49:57.921Z,17.40
2018-06-18T03:52:26.925Z,17.40
2018-06-18T03:54:58.345Z,17.30
2018-06-18T03:57:26.732Z,17.40
2018-06-18T03:59:55.637Z,17.50
2018-06-18T04:02:40.788Z,17.50
2018-06-18T04:05:14.703Z,17.50
2018-06-18T04:07:48.364Z,17.60
2018-06-18T04:10:22.087Z,17.30
2018-06-18T04:12:50.565Z,17.30
2018-06-18T04:15:18.959Z,17.30
2018-06-18T04:17:47.444Z,17.20
2018-06-18T04:20:15.838Z,17.30
2018-06-18T04:22:44.245Z,17.40
2018-06-18T04:25:12.805Z,17.30
2018-06-18T04:27:41.982Z,17.30
2018-06-18T04:30:10.377Z,17.10
2018-06-18T04:32:38.816Z,17.10
2018-06-18T04:35:09.074Z,17.10
2018-06-18T04:37:37.500Z,17.00
2018-06-18T04:40:07.156Z,16.90
2018-06-18T04:42:41.009Z,16.90
2018-06-18T04:45:14.932Z,16.90
2018-06-18T04:47:48.761Z,17.00
2018-06-18T04:50:22.398Z,17.00
2018-06-18T04:52:50.825Z,17.10
2018-06-18T04:55:19.263Z,17.10
2018-06-18T04:57:52.404Z,17.30
2018-06-18T05:00:43.880Z,17.30
2018-06-18T05:03:12.313Z,17.40
2018-06-18T05:05:40.746Z,17.40
2018-06-18T05:08:24.849Z,17.30
2018-06-18T05:10:53.256Z,17.30
2018-06-18T05:13:21.684Z,17.40
2018-06-18T05:15:51.963Z,17.40
2018-06-18T05:18:20.426Z,17.50
2018-06-18T05:20:48.917Z,17.70
2018-06-18T05:23:17.864Z,17.70
2018-06-18T05:25:53.454Z,17.40
2018-06-18T05:28:23.084Z,17.30
2018-06-18T05:30:51.590Z,17.20
2018-06-18T05:33:20.012Z,17.40
2018-06-18T05:35:49.424Z,17.40
2018-06-18T05:38:27.725Z,17.50
2018-06-18T05:40:56.564Z,17.40
2018-06-18T05:43:25.110Z,17.40
2018-06-18T05:45:53.492Z,17.70
2018-06-18T05:48:22.246Z,17.70
2018-06-18T05:50:51.449Z,17.60
2018-06-18T05:53:19.897Z,17.60
2018-06-18T05:55:48.377Z,17.70
2018-06-18T05:58:16.800Z,17.90
2018-06-18T06:00:45.245Z,18.00
2018-06-18T06:03:13.646Z,17.80
2018-06-18T06:05:42.151Z,18.00
2018-06-18T06:08:10.552Z,17.80
2018-06-18T06:10:39.180Z,17.80
2018-06-18T06:13:08.589Z,18.00
2018-06-18T06:15:37.213Z,18.00
2018-06-18T06:18:06.040Z,18.20
2018-06-18T06:20:34.782Z,18.30
2018-06-18T06:23:03.222Z,18.40
2018-06-18T06:25:31.668Z,18.50
2018-06-18T06:28:00.902Z,18.50
2018-06-18T06:30:29.334Z,18.40
2018-06-18T06:32:57.797Z,18.50
2018-06-18T06:35:32.961Z,18.60
2018-06-18T06:38:01.401Z,18.70
2018-06-18T06:40:29.909Z,18.40
2018-06-18T06:42:58.359Z,18.40
2018-06-18T06:45:26.864Z,18.50
2018-06-18T06:47:55.325Z,18.60
2018-06-18T06:50:24.047Z,18.80
2018-06-18T06:52:52.468Z,18.90
2018-06-18T06:55:20.958Z,19.00
2018-06-18T06:57:49.384Z,19.00
2018-06-18T07:00:18.518Z,19.10
2018-06-18T07:02:46.950Z,19.20
2018-06-18T07:05:16.040Z,19.20
2018-06-18T07:07:45.233Z,19.20
2018-06-18T07:10:13.661Z,19.40
2018-06-18T07:12:42.142Z,19.50
2018-06-18T07:15:10.738Z,19.70
2018-06-18T07:17:40.266Z,19.90
2018-06-18T07:20:08.869Z,20.00
2018-06-18T07:22:37.991Z,19.80
2018-06-18T07:25:06.373Z,19.60
2018-06-18T07:27:34.976Z,19.80
2018-06-18T07:30:03.442Z,19.80
2018-06-18T07:32:31.853Z,20.10
2018-06-18T07:35:00.295Z,20.30
2018-06-18T07:37:29.141Z,20.30
2018-06-18T07:39:57.656Z,20.20
2018-06-18T07:44:54.224Z,19.80
2018-06-18T07:47:23.824Z,19.70
2018-06-18T07:49:52.349Z,19.70
2018-06-18T07:52:20.830Z,19.80
2018-06-18T07:54:49.933Z,19.80
2018-06-18T07:57:18.356Z,19.60
2018-06-18T07:59:46.802Z,19.50
2018-06-18T08:02:15.243Z,19.60
2018-06-18T08:04:43.688Z,19.50
2018-06-18T08:07:12.785Z,19.50
2018-06-18T08:09:41.319Z,19.50
2018-06-18T08:12:10.226Z,19.30
2018-06-18T08:14:39.661Z,19.20
2018-06-18T08:17:11.054Z,19.40
2018-06-18T08:19:39.784Z,19.50
2018-06-18T08:22:08.210Z,19.70
2018-06-18T08:24:36.659Z,19.80
2018-06-18T08:27:05.452Z,19.50
2018-06-18T08:29:34.209Z,19.60
2018-06-18T08:32:02.702Z,19.70
2018-06-18T08:34:31.137Z,19.80
2018-06-18T08:36:59.581Z,19.90
2018-06-18T08:39:27.996Z,20.00
2018-06-18T08:41:56.640Z,19.90
2018-06-18T08:44:25.085Z,19.60
2018-06-18T08:46:53.689Z,19.40
2018-06-18T08:49:22.108Z,19.40
2018-06-18T08:51:56.057Z,19.40
2018-06-18T08:54:29.695Z,19.60
2018-06-18T08:57:04.552Z,19.50
2018-06-18T08:59:39.051Z,19.40
2018-06-18T09:02:07.759Z,19.50
2018-06-18T09:04:41.565Z,19.50
2018-06-18T09:07:10.844Z,19.40
2018-06-18T09:09:39.631Z,19.50
2018-06-18T09:12:07.778Z,19.70
2018-06-18T09:14:36.177Z,20.00
2018-06-18T09:17:04.977Z,19.90
2018-06-18T09:19:33.450Z,19.50
2018-06-18T09:22:01.868Z,19.40
2018-06-18T09:24:34.352Z,19.20
2018-06-18T09:27:07.983Z,19.40
2018-06-18T09:29:37.505Z,19.40
2018-06-18T09:32:12.960Z,19.50
2018-06-18T09:34:41.460Z,19.60
2018-06-18T09:37:10.473Z,19.70
2018-06-18T09:39:38.918Z,19.70
2018-06-18T09:42:07.386Z,19.60
2018-06-18T09:44:35.843Z,19.70
2018-06-18T09:47:04.308Z,19.80
2018-06-18T09:49:38.214Z,19.70
2018-06-18T09:52:12.109Z,19.60
2018-06-18T09:54:45.984Z,19.70
2018-06-18T09:57:26.193Z,19.70
2018-06-18T10:00:01.270Z,19.90
2018-06-18T10:02:29.716Z,20.10
2018-06-18T10:04:59.572Z,20.20
2018-06-18T10:07:28.068Z,20.30
2018-06-18T10:09:57.097Z,20.40
2018-06-18T10:12:25.653Z,20.40
2018-06-18T10:14:54.450Z,20.40
2018-06-18T10:17:23.580Z,20.50
2018-06-18T10:19:52.697Z,20.70
2018-06-18T10:22:21.188Z,20.90
2018-06-18T10:24:53.788Z,21.10
2018-06-18T10:27:22.325Z,21.20
2018-06-18T10:29:50.737Z,21.00
2018-06-18T10:32:24.649Z,21.10
2018-06-18T10:34:58.470Z,21.20
2018-06-18T10:37:32.277Z,21.10
2018-06-18T10:40:05.985Z,21.10
2018-06-18T10:42:39.796Z,21.10
2018-06-18T10:45:08.537Z,21.40
2018-06-18T10:47:37.244Z,21.80
2018-06-18T10:50:05.702Z,22.20
2018-06-18T10:52:34.497Z,22.20
2018-06-18T10:55:03.034Z,22.00
2018-06-18T10:57:31.921Z,22.00
2018-06-18T11:00:00.631Z,21.90
2018-06-18T11:02:29.446Z,21.80
2018-06-18T11:05:01.951Z,21.70
2018-06-18T11:07:31.045Z,21.80
2018-06-18T11:09:59.468Z,21.80
2018-06-18T11:12:27.916Z,21.80
2018-06-18T11:14:56.346Z,22.00
2018-06-18T11:17:30.082Z,22.20
2018-06-18T11:20:04.247Z,22.20
2018-06-18T11:22:38.844Z,22.20
2018-06-18T11:25:12.764Z,22.40
2018-06-18T11:27:41.232Z,22.30
2018-06-18T11:30:09.702Z,22.30
2018-06-18T11:32:38.284Z,22.20
2018-06-18T11:35:06.705Z,22.10
2018-06-18T11:37:36.165Z,22.10
2018-06-18T11:40:04.653Z,21.70
2018-06-18T11:42:33.228Z,21.80
2018-06-18T11:45:01.655Z,21.90
2018-06-18T11:47:30.128Z,21.90
2018-06-18T11:49:58.678Z,21.80
2018-06-18T11:52:27.266Z,21.80
2018-06-18T11:54:55.684Z,22.00
2018-06-18T11:57:25.252Z,22.30
2018-06-18T11:59:58.965Z,22.30
2018-06-18T12:02:32.774Z,22.30
2018-06-18T12:05:06.593Z,22.40
2018-06-18T12:07:41.165Z,22.20
2018-06-18T12:10:09.674Z,22.10
2018-06-18T12:12:39.092Z,22.00
2018-06-18T12:15:07.564Z,21.90
2018-06-18T12:17:36.202Z,21.90
2018-06-18T12:20:04.713Z,22.10
2018-06-18T12:22:33.168Z,22.20
2018-06-18T12:25:01.730Z,22.50
2018-06-18T12:27:32.508Z,22.80
2018-06-18T12:30:00.997Z,22.70
2018-06-18T12:32:29.441Z,22.60
2018-06-18T12:34:57.891Z,22.60
2018-06-18T12:37:26.752Z,22.90
2018-06-18T12:39:55.160Z,23.00
2018-06-18T12:42:23.660Z,23.10
2018-06-18T12:44:57.428Z,23.20
2018-06-18T12:47:31.395Z,23.30
2018-06-18T12:50:05.293Z,23.60
2018-06-18T12:52:39.073Z,23.70
2018-06-18T12:55:13.358Z,23.60
2018-06-18T12:57:41.832Z,23.50
2018-06-18T13:00:10.271Z,23.50
2018-06-18T13:02:42.156Z,23.80
2018-06-18T13:05:10.618Z,24.00
2018-06-18T13:07:39.414Z,24.00
2018-06-18T13:10:07.979Z,24.00
2018-06-18T13:12:40.801Z,24.10
2018-06-18T13:15:09.255Z,23.80
2018-06-18T13:17:37.943Z,23.70
2018-06-18T13:20:06.390Z,23.50
2018-06-18T13:22:35.411Z,23.40
2018-06-18T13:25:03.885Z,23.20
2018-06-18T13:27:37.550Z,23.10
2018-06-18T13:30:06.016Z,23.20
2018-06-18T13:32:35.114Z,23.20
2018-06-18T13:35:03.560Z,23.10
2018-06-18T13:37:37.297Z,23.00
2018-06-18T13:40:11.054Z,23.00
2018-06-18T13:42:45.221Z,22.90
2018-06-18T13:45:19.092Z,22.80
2018-06-18T13:47:52.824Z,22.80
2018-06-18T13:50:21.556Z,22.70
2018-06-18T13:52:50.046Z,22.90
2018-06-18T13:55:19.754Z,23.10
2018-06-18T13:57:49.653Z,23.20
2018-06-18T14:00:18.649Z,23.40
2018-06-18T14:02:47.069Z,23.50
2018-06-18T14:05:15.550Z,23.50
2018-06-18T14:07:44.051Z,23.40
2018-06-18T14:10:13.174Z,23.30
2018-06-18T14:12:41.668Z,23.10
2018-06-18T14:15:10.116Z,23.20
2018-06-18T14:17:38.604Z,23.10
2018-06-18T14:20:12.416Z,23.00
2018-06-18T14:22:40.995Z,23.10
2018-06-18T14:25:09.957Z,23.00
2018-06-18T14:27:38.431Z,22.90
2018-06-18T14:30:12.985Z,22.90
2018-06-18T14:32:46.904Z,22.90
2018-06-18T14:35:21.572Z,22.90
2018-06-18T14:37:55.635Z,22.90
2018-06-18T14:40:24.069Z,22.90
2018-06-18T14:42:52.561Z,23.00
2018-06-18T14:45:21.441Z,23.20
2018-06-18T14:47:50.784Z,23.30
2018-06-18T14:50:19.224Z,23.40
2018-06-18T14:55:16.153Z,23.60
2018-06-18T14:57:44.681Z,23.60
2018-06-18T15:00:15.633Z,23.50
2018-06-18T15:02:44.888Z,23.50
2018-06-18T15:05:13.718Z,23.50
2018-06-18T15:07:42.225Z,23.40
2018-06-18T15:10:10.630Z,23.30
2018-06-18T15:12:47.537Z,23.30
2018-06-18T15:15:21.297Z,23.20
2018-06-18T15:17:50.244Z,23.10
2018-06-18T15:20:20.200Z,23.10
2018-06-18T15:22:51.897Z,23.00
2018-06-18T15:25:20.329Z,22.80
2018-06-18T15:27:48.753Z,22.80
2018-06-18T15:30:17.156Z,22.80
2018-06-18T15:32:46.487Z,22.80
2018-06-18T15:35:15.019Z,22.70
2018-06-18T15:37:47.730Z,22.70
2018-06-18T15:40:16.489Z,22.70
2018-06-18T15:42:44.931Z,22.80
2018-06-18T15:45:18.209Z,22.80
2018-06-18T15:47:53.962Z,22.70
2018-06-18T15:50:22.389Z,22.70
2018-06-18T15:52:51.245Z,22.80
2018-06-18T15:55:19.690Z,22.80
2018-06-18T15:57:48.125Z,22.90
2018-06-18T16:00:16.801Z,23.00
2018-06-18T16:02:45.279Z,22.90
2018-06-18T16:05:13.877Z,22.90
2018-06-18T16:07:42.418Z,23.00
2018-06-18T16:10:10.994Z,23.10
2018-06-18T16:12:43.373Z,23.10
2018-06-18T16:15:12.427Z,23.10
2018-06-18T16:17:42.041Z,23.10
2018-06-18T16:20:11.181Z,23.00
2018-06-18T16:22:39.618Z,23.00
2018-06-18T16:25:08.109Z,23.10
2018-06-18T16:27:36.590Z,23.20
2018-06-18T16:30:05.269Z,23.10
2018-06-18T16:32:33.732Z,23.20
2018-06-18T16:35:02.217Z,23.40
2018-06-18T16:37:35.549Z,23.30
2018-06-18T16:40:08.840Z,23.20
2018-06-18T16:42:37.900Z,23.20
2018-06-18T16:45:06.455Z,23.20
2018-06-18T16:47:34.857Z,23.10
2018-06-18T16:50:04.062Z,23.10
2018-06-18T16:52:32.524Z,23.10
2018-06-18T16:55:03.918Z,23.10
2018-06-18T16:57:33.092Z,23.10
2018-06-18T17:00:01.516Z,23.00
2018-06-18T17:02:30.976Z,22.90
2018-06-18T17:04:59.466Z,22.90
2018-06-18T17:07:31.974Z,23.00
2018-06-18T17:10:00.433Z,23.00
2018-06-18T17:12:28.897Z,22.90
2018-06-18T17:14:57.380Z,22.80
2018-06-18T17:17:26.718Z,22.80
2018-06-18T17:19:55.180Z,22.80
2018-06-18T17:22:23.625Z,22.70
2018-06-18T17:24:52.267Z,22.70
2018-06-18T17:27:20.793Z,22.80
2018-06-18T17:29:49.226Z,22.80
2018-06-18T17:32:17.700Z,22.80
2018-06-18T17:34:46.374Z,22.80
2018-06-18T17:37:14.826Z,22.70
2018-06-18T17:39:43.296Z,22.60
2018-06-18T17:42:11.860Z,22.50
2018-06-18T17:44:41.451Z,22.50
2018-06-18T17:47:09.917Z,22.40
2018-06-18T17:49:38.837Z,22.50
2018-06-18T17:52:08.149Z,22.50
2018-06-18T17:54:36.609Z,22.50
2018-06-18T17:57:05.582Z,22.30
2018-06-18T17:59:34.150Z,22.30
2018-06-18T18:02:03.446Z,22.10
2018-06-18T18:04:31.890Z,21.80
2018-06-18T18:07:00.374Z,22.00
2018-06-18T18:09:29.178Z,22.00
2018-06-18T18:11:57.793Z,21.90
2018-06-18T18:14:26.257Z,21.90
2018-06-18T18:16:54.814Z,22.00
2018-06-18T18:19:23.677Z,22.00
2018-06-18T18:21:52.188Z,21.80
2018-06-18T18:24:20.633Z,21.80
2018-06-18T18:29:17.255Z,21.80
2018-06-18T18:31:45.715Z,21.80
2018-06-18T18:34:14.209Z,21.70
2018-06-18T18:36:42.704Z,21.70
2018-06-18T18:39:11.261Z,21.60
2018-06-18T18:41:40.233Z,21.60
2018-06-18T18:44:09.162Z,21.70
2018-06-18T18:46:37.990Z,21.70
2018-06-18T18:49:06.605Z,21.60
2018-06-18T18:51:35.449Z,21.60
2018-06-18T18:54:03.991Z,21.50
2018-06-18T18:56:43.832Z,21.60
2018-06-18T18:59:19.979Z,21.50
2018-06-18T19:01:48.431Z,21.40
2018-06-18T19:04:24.381Z,21.50
2018-06-18T19:06:53.158Z,21.40
2018-06-18T19:09:24.370Z,21.30
2018-06-18T19:11:53.598Z,21.30
2018-06-18T19:14:21.922Z,21.30
2018-06-18T19:16:50.761Z,21.40
2018-06-18T19:19:20.693Z,21.50
2018-06-18T19:21:49.850Z,21.60
2018-06-18T19:24:18.449Z,21.50
2018-06-18T19:26:47.428Z,21.50
2018-06-18T19:29:15.876Z,21.30
2018-06-18T19:31:44.630Z,21.20
2018-06-18T19:34:16.561Z,21.10
2018-06-18T19:36:48.473Z,21.10
2018-06-18T19:39:17.260Z,21.00
2018-06-18T19:41:45.838Z,21.00
2018-06-18T19:44:14.261Z,21.00
2018-06-18T19:47:05.641Z,21.10
2018-06-18T19:49:34.106Z,21.10
2018-06-18T19:52:02.883Z,21.00
2018-06-18T19:54:33.141Z,21.00
2018-06-18T19:57:01.766Z,21.00
2018-06-18T19:59:30.784Z,20.90
2018-06-18T20:01:59.551Z,20.90
2018-06-18T20:04:28.257Z,20.90
2018-06-18T20:06:56.948Z,21.00
2018-06-18T20:09:25.485Z,20.90
2018-06-18T20:11:54.048Z,21.00
2018-06-18T20:14:22.530Z,21.00
2018-06-18T20:16:51.017Z,20.90
2018-06-18T20:19:20.309Z,20.80
2018-06-18T20:21:49.217Z,20.70
2018-06-18T20:24:18.680Z,20.60
2018-06-18T20:26:47.324Z,20.60
2018-06-18T20:29:15.929Z,20.60
2018-06-18T20:31:45.587Z,20.60
2018-06-18T20:34:19.836Z,20.70
2018-06-18T20:36:48.393Z,20.60
2018-06-18T20:39:16.859Z,20.60
2018-06-18T20:41:45.429Z,20.60
2018-06-18T20:44:15.755Z,20.50
2018-06-18T20:46:44.663Z,20.60
2018-06-18T20:51:42.960Z,20.60
2018-06-18T20:54:12.170Z,20.70
2018-06-18T20:56:42.016Z,20.60
2018-06-18T20:59:12.144Z,20.60
2018-06-18T21:01:41.265Z,20.60
2018-06-18T21:04:09.737Z,20.70
2018-06-18T21:06:38.224Z,20.60
2018-06-18T21:09:08.406Z,20.50
2018-06-18T21:11:36.900Z,20.50
2018-06-18T21:14:10.712Z,20.40
2018-06-18T21:16:41.450Z,20.50
2018-06-18T21:19:10.314Z,20.50
2018-06-18T21:21:39.242Z,20.40
2018-06-18T21:24:11.726Z,20.40
2018-06-18T21:26:40.493Z,20.40
2018-06-18T21:29:13.452Z,20.40
2018-06-18T21:31:46.592Z,20.40
2018-06-18T21:34:15.245Z,20.20
2018-06-18T21:36:43.940Z,20.10
2018-06-18T21:39:12.968Z,20.10
2018-06-18T21:41:42.453Z,20.10
2018-06-18T21:44:22.668Z,20.10
2018-06-18T21:49:21.129Z,20.10
2018-06-18T21:51:49.600Z,20.20
2018-06-18T21:54:18.206Z,20.10
2018-06-18T21:56:47.434Z,20.00
2018-06-18T21:59:16.440Z,20.00
2018-06-18T22:01:46.952Z,20.10
2018-06-18T22:04:16.122Z,20.00
2018-06-18T22:06:45.165Z,20.10
2018-06-18T22:09:20.378Z,20.20
2018-06-18T22:11:52.032Z,20.10
2018-06-18T22:14:20.992Z,20.00
2018-06-18T22:16:49.485Z,20.00
2018-06-18T22:19:18.324Z,20.00
2018-06-18T22:21:46.953Z,20.10
2018-06-18T22:24:19.548Z,20.00
2018-06-18T22:26:48.005Z,20.00
2018-06-18T22:29:17.156Z,20.00
2018-06-18T22:31:46.020Z,20.00
2018-06-18T22:34:15.683Z,19.90
2018-06-18T22:36:44.620Z,19.90
2018-06-18T22:39:14.589Z,19.90
2018-06-18T22:41:43.874Z,19.90
2018-06-18T22:44:12.870Z,19.80
2018-06-18T22:46:45.604Z,19.70
2018-06-18T22:49:14.092Z,19.70
2018-06-18T22:51:46.472Z,19.70
2018-06-18T22:54:14.977Z,19.70
2018-06-18T22:56:43.493Z,19.60
2018-06-18T22:59:11.951Z,19.50
2018-06-18T23:01:40.506Z,19.40
2018-06-18T23:04:09.008Z,19.30
2018-06-18T23:06:37.461Z,19.30
2018-06-18T23:09:08.801Z,19.20
2018-06-18T23:11:37.716Z,19.20
2018-06-18T23:14:08.779Z,19.30
2018-06-18T23:16:38.313Z,19.30
2018-06-18T23:19:06.880Z,19.20
2018-06-18T23:21:35.450Z,19.30
2018-06-18T23:24:04.288Z,19.30
2018-06-18T23:26:32.929Z,19.30
2018-06-18T23:29:08.635Z,19.20
2018-06-18T23:31:41.739Z,19.20
2018-06-18T23:34:10.804Z,19.20
2018-06-18T23:36:40.304Z,19.20
2018-06-18T23:39:10.325Z,19.20
2018-06-18T23:41:42.533Z,19.20
2018-06-18T23:44:11.137Z,19.10
2018-06-18T23:46:39.561Z,19.00
2018-06-18T23:49:08.003Z,19.00
2018-06-18T23:51:36.473Z,19.00
2018-06-18T23:54:04.952Z,19.00
2018-06-18T23:56:34.380Z,19.00
2018-06-18T23:59:02.822Z,18.90
